Ketchum, ID (83340)

10:07 PM MST on February 06, 2016 (GMT -0700)
Sun Valley Resort | | Change Station
CLOSE
Current Station
Personal Weather Station
Location: Sun Valley, ID
Elevation: 5951 ft
Nearby Weather Stations

Elev 5951 ft 43.70 °N, 114.35 °W | Updated 11 seconds ago

Mostly Cloudy
Mostly Cloudy
17.8 °F
Feels Like 18 °F
N
0.0
Wind Variable Wind from West
Gusts 0.0 mph

Today
High -- | Low -- °F
--% Chance of Precip.
Yesterday
High -- | Low -- °F
Precip. -- in
Pressure 30.38 in
Visibility 10.0 miles
Clouds Scattered Clouds 12000 ft
Windchill 18 °F
Dew Point 12 °F
Humidity 77%
Rainfall 0.00 in
Snow Depth Not available.
7:48 AM 5:54 PM
Waning Crescent, 3% visible
METAR KSUN 070447Z 31006KT 10SM SCT120 M04/M07 A3038
Pressure 30.38 in
Visibility 10.0 miles
Clouds Scattered Clouds 12000 ft
Windchill 18 °F
Dew Point 12 °F
Humidity 77%
Rainfall 0.00 in
Snow Depth Not available.
7:48 AM 5:54 PM
Waning Crescent, 3% visible
METAR KSUN 070447Z 31006KT 10SM SCT120 M04/M07 A3038

10-Day Weather Forecast

Almanac

Astronomy

Feb. 06, 2016 Rise Set
Actual Time
Civil Twilight
Nautical Twilight
Astronomical Twilight
Moon
Length of Visible Light
Length of Day
Tomorrow will be .
, % of the Moon is Illuminated

Today's Extremes

State Highs State Lows

Community

WunderPhotos

Upload Photos

1,891,157 photos uploaded!

WunderBlog® & News

Nearby

Air Quality

  Air Quality AQ Index Pollutant
Not available.

Snow Depth

Station Depth Elevation

Earthquake Activity

City Distance Mag. Time & Date
Minimum magnitude displayed is 2.5.

Coastal Water Temperatures

Place Temperature

Stations

Nearby Weather Stations

Station Location Temp. Windchill Dew Point Humidity Wind Precip. Elev Updated Type
                   

Watches & Warnings

There are currently no watches in effect.